Terminal Aerodrome Forecast
Issued by NWS

Home | Current Version | Previous Version | Text Only | Print | Product List | Glossary On
Versions: 1 2 3 4 5 6 7 8 9 10 11 12 13
000
FTUS43 KSGF 202300
TAFBBG
TAF
KBBG 202320Z 2100/2124 21008KT P6SM BKN250
     FM210200 17006KT P6SM SKC
     FM210700 18006KT P6SM SKC WS020/22004KT
     FM211500 19010G15KT P6SM SKC=

USA.gov is the U.S. government's official web portal to all federal, state and local government web resources and services.